Skip Navigation LinksHome page > Weather > Current weather Skip Navigation Links

Current Weather

Jakutsk, Russia

For information only: do not use for flight planning or navigation.
Latest weather
Observation time Sunday, August 31, 2014 9:00 AM JST
Local time Sunday, August 31, 2014 9:31 AM JST
Flight conditions Marginal Visual Meteorological Conditions
Winds
Wind direction Northwest (310°)
Wind speed 7 mph
Visibility 6.2 mi.
Sky condition
Ceiling 1,600 ft. broken clouds with cumulonimbus
Cloud layer broken clouds with cumulonimbus 1,600 ft.
Cloud layer overcast 10,000 ft.
Temperature 45°F
Dewpoint 39°F
Altimeter 29.94 in.Hg
Precipitation
QF 9:31 PM
Derived measurements
Relative humidity 81%
Wind chill 41°F
Density altitude -531 ft.
Remarks
No significant changes expected in the next two hours.
METAR UEEE 310000Z 31003MPS 9999 BKN016CB OVC100 07/04 Q1014 NOSIG RMK QFE751 2309//60

Settings

Location code

InnerDrive.Weather 4.0.5356.0 Release CLR 4.0.30319.34014
Copyright ©2014 Inner Drive Technology. All rights reserved. Portions Copyright ©1986-2014 David Braverman.

Find weather

Site navigation


Skip Navigation Links

Place info

Page info

PayPal - The safer, easier way to pay online!

Return home.

Copyright ©2014 Inner Drive Technology. Purveyors of fine, hand-crafted computer software. Page printed 2014-08-31T00:31:43 UTC.